This is the latest recevied weather packets stored in our database for station/object n7wwk-1. If no packets are shown the sender has not sent any weather packets the latest 10 day(s).
| Time | Temp. | Humidity | Pressure | Rain* | Wind** | Luminosity | Snow |
|---|---|---|---|---|---|---|---|
| 1777753205 | 22.22° C | 91% | 1007.4 hPa | 0 mm | - | 142 W/m² | - |
| 1777750805 | 20.56° C | 93% | 1007.7 hPa | 0 mm | - | 151 W/m² | - |
| 1777746005 | 20° C | 97% | 1007.7 hPa | 4.32 mm | - | 147 W/m² | - |
| 1777744805 | 21.67° C | 96% | 1007.8 hPa | 4.06 mm | - | 20 W/m² | - |
| 1777741805 | 23.33° C | 93% | 1008.7 hPa | 0.25 mm | - | 29 W/m² | - |
| 1777736405 | 25.56° C | 80% | 1007.9 hPa | 0 mm | - | 123 W/m² | - |
| 1777735337 | 25.56° C | 80% | 1008.1 hPa | 0 mm | - | 159 W/m² | - |
| 1777728004 | 23.33° C | 92% | 1008.3 hPa | 0 mm | - | 76 W/m² | - |
| 1777727405 | 23.33° C | 92% | 1008.6 hPa | 0 mm | - | 72 W/m² | - |
| 1777726205 | 22.78° C | 92% | 1008 hPa | 0 mm | - | 87 W/m² | - |
| 1777723205 | 21.67° C | 97% | 1007.4 hPa | 0 mm | - | 80 W/m² | - |
| 1777720805 | 20.56° C | 98% | 1007.7 hPa | 0 mm | - | 27 W/m² | - |
| 1777719004 | 20.56° C | 98% | 1007.2 hPa | 0 mm | - | 2 W/m² | - |
| 1777715405 | 20.56° C | 97% | 1006.6 hPa | 0 mm | - | 0 W/m² | - |
| 1777713137 | 21.11° C | 97% | 1006.9 hPa | 0 mm | - | 0 W/m² | - |
| 1777701605 | 21.67° C | 94% | 1009.1 hPa | 0 mm | - | 0 W/m² | - |
| 1777694420 | 22.78° C | 91% | 1009.4 hPa | 0 mm | - | 0 W/m² | - |
| 1777686605 | 23.89° C | 88% | 1009.3 hPa | 0 mm | - | 0 W/m² | - |
| 1777681935 | 24.44° C | 83% | 1009 hPa | 0 mm | - | 0 W/m² | - |
| 1777680604 | 25° C | 82% | 1008.6 hPa | 0 mm | - | 0 W/m² | - |
| 1777678204 | 26.11° C | 75% | 1008.4 hPa | 0 mm | - | 3 W/m² | - |
| 1777675204 | 27.78° C | 71% | 1007.6 hPa | 0 mm | - | 18 W/m² | - |
| 1777673405 | 28.89° C | 63% | 1007 hPa | 0 mm | - | 32 W/m² | - |
| 1777672205 | 29.44° C | 61% | 1007.1 hPa | 0 mm | - | 66 W/m² | - |
| 1777669205 | 30° C | 56% | 1006.9 hPa | 0 mm | - | 376 W/m² | - |
* Rain latest hour (hover to see other rain measurements)
** Current wind speed in m/s (hover to see current wind gust speed)